sensor_id;sensor_type;location;lat;lon;timestamp;pressure;altitude;pressure_sealevel;temperature;humidity
80405;BME280;69733;48.744;9.176;2023-12-28T00:00:58;96916.13;;;2.81;74.17
80405;BME280;69733;48.744;9.176;2023-12-28T00:03:23;96912.06;;;2.79;74.36
80405;BME280;69733;48.744;9.176;2023-12-28T00:05:49;96901.72;;;2.77;73.97
80405;BME280;69733;48.744;9.176;2023-12-28T00:08:14;96907.16;;;2.76;73.92
80405;BME280;69733;48.744;9.176;2023-12-28T00:10:39;96908.16;;;2.75;74.13
80405;BME280;69733;48.744;9.176;2023-12-28T00:13:04;96909.13;;;2.74;74.29
80405;BME280;69733;48.744;9.176;2023-12-28T00:15:30;96912.78;;;2.73;73.83
80405;BME280;69733;48.744;9.176;2023-12-28T00:17:55;96917.38;;;2.71;74.00
80405;BME280;69733;48.744;9.176;2023-12-28T00:20:20;96922.47;;;2.72;74.00
80405;BME280;69733;48.744;9.176;2023-12-28T00:22:46;96920.47;;;2.74;73.87
80405;BME280;69733;48.744;9.176;2023-12-28T00:25:11;96922.91;;;2.76;73.58
80405;BME280;69733;48.744;9.176;2023-12-28T00:27:36;96932.25;;;2.78;73.49
80405;BME280;69733;48.744;9.176;2023-12-28T00:30:04;96923.38;;;2.79;73.49
80405;BME280;69733;48.744;9.176;2023-12-28T00:32:30;96919.59;;;2.82;73.37
80405;BME280;69733;48.744;9.176;2023-12-28T00:34:55;96930.56;;;2.85;73.15
80405;BME280;69733;48.744;9.176;2023-12-28T00:37:20;96930.19;;;2.88;72.92
80405;BME280;69733;48.744;9.176;2023-12-28T00:39:46;96935.66;;;2.87;73.23
80405;BME280;69733;48.744;9.176;2023-12-28T00:42:13;96939.88;;;2.88;72.95
80405;BME280;69733;48.744;9.176;2023-12-28T00:44:38;96941.53;;;2.89;73.21
80405;BME280;69733;48.744;9.176;2023-12-28T00:47:03;96935.81;;;2.85;73.32
80405;BME280;69733;48.744;9.176;2023-12-28T00:49:29;96931.72;;;2.83;73.17
80405;BME280;69733;48.744;9.176;2023-12-28T00:51:55;96935.34;;;2.82;73.13
80405;BME280;69733;48.744;9.176;2023-12-28T00:54:20;96936.31;;;2.81;73.53
80405;BME280;69733;48.744;9.176;2023-12-28T00:56:46;96926.19;;;2.78;73.02
80405;BME280;69733;48.744;9.176;2023-12-28T00:59:11;96937.66;;;2.77;73.27
80405;BME280;69733;48.744;9.176;2023-12-28T01:01:36;96934.41;;;2.75;73.03
80405;BME280;69733;48.744;9.176;2023-12-28T01:04:02;96933.78;;;2.73;73.12
80405;BME280;69733;48.744;9.176;2023-12-28T01:06:27;96933.13;;;2.71;72.82
80405;BME280;69733;48.744;9.176;2023-12-28T01:08:55;96931.50;;;2.70;72.87
80405;BME280;69733;48.744;9.176;2023-12-28T01:11:21;96930.22;;;2.66;73.37
80405;BME280;69733;48.744;9.176;2023-12-28T01:13:47;96930.41;;;2.64;73.27
80405;BME280;69733;48.744;9.176;2023-12-28T01:16:13;96938.09;;;2.66;73.17
80405;BME280;69733;48.744;9.176;2023-12-28T01:18:38;96931.22;;;2.65;73.08
80405;BME280;69733;48.744;9.176;2023-12-28T01:21:04;96938.09;;;2.66;72.99
80405;BME280;69733;48.744;9.176;2023-12-28T01:23:29;96946.16;;;2.64;72.65
80405;BME280;69733;48.744;9.176;2023-12-28T01:25:55;96946.31;;;2.63;72.83
80405;BME280;69733;48.744;9.176;2023-12-28T01:28:21;96947.31;;;2.62;73.01
80405;BME280;69733;48.744;9.176;2023-12-28T01:30:46;96946.84;;;2.58;72.79
80405;BME280;69733;48.744;9.176;2023-12-28T01:33:12;96943.56;;;2.56;72.95
80405;BME280;69733;48.744;9.176;2023-12-28T01:35:37;96949.03;;;2.55;72.96
80405;BME280;69733;48.744;9.176;2023-12-28T01:38:03;96943.31;;;2.51;72.82
80405;BME280;69733;48.744;9.176;2023-12-28T01:40:28;96945.09;;;2.50;72.72
80405;BME280;69733;48.744;9.176;2023-12-28T01:42:54;96951.50;;;2.48;72.87
80405;BME280;69733;48.744;9.176;2023-12-28T01:45:19;96957.09;;;2.45;72.84
80405;BME280;69733;48.744;9.176;2023-12-28T01:47:45;96956.63;;;2.41;72.83
80405;BME280;69733;48.744;9.176;2023-12-28T01:50:12;96976.81;;;2.41;73.03
80405;BME280;69733;48.744;9.176;2023-12-28T01:52:38;96976.34;;;2.37;73.14
80405;BME280;69733;48.744;9.176;2023-12-28T01:55:04;96969.47;;;2.36;72.87
80405;BME280;69733;48.744;9.176;2023-12-28T01:57:30;96974.06;;;2.34;73.16
80405;BME280;69733;48.744;9.176;2023-12-28T01:59:55;96961.28;;;2.31;72.75
80405;BME280;69733;48.744;9.176;2023-12-28T02:02:24;96961.28;;;2.31;72.73
80405;BME280;69733;48.744;9.176;2023-12-28T02:04:49;96965.38;;;2.34;72.85
80405;BME280;69733;48.744;9.176;2023-12-28T02:07:15;96976.69;;;2.34;72.77
80405;BME280;69733;48.744;9.176;2023-12-28T02:09:40;96981.94;;;2.34;72.70
80405;BME280;69733;48.744;9.176;2023-12-28T02:12:06;96982.13;;;2.33;72.97
80405;BME280;69733;48.744;9.176;2023-12-28T02:14:32;96994.44;;;2.32;72.66
80405;BME280;69733;48.744;9.176;2023-12-28T02:17:07;96999.69;;;2.32;72.37
80405;BME280;69733;48.744;9.176;2023-12-28T02:19:49;97005.09;;;2.31;72.41
80405;BME280;69733;48.744;9.176;2023-12-28T02:22:15;96999.22;;;2.29;72.56
80405;BME280;69733;48.744;9.176;2023-12-28T02:27:26;97001.38;;;2.25;72.60
80405;BME280;69733;48.744;9.176;2023-12-28T02:29:51;96986.78;;;2.23;72.59
80405;BME280;69733;48.744;9.176;2023-12-28T02:32:22;96996.63;;;2.21;72.35
80405;BME280;69733;48.744;9.176;2023-12-28T02:34:52;96980.25;;;2.19;72.46
80405;BME280;69733;48.744;9.176;2023-12-28T02:37:21;96988.28;;;2.17;72.47
80405;BME280;69733;48.744;9.176;2023-12-28T02:39:49;96978.94;;;2.15;72.51
80405;BME280;69733;48.744;9.176;2023-12-28T02:42:16;96979.09;;;2.13;72.59
80405;BME280;69733;48.744;9.176;2023-12-28T02:44:41;96977.47;;;2.12;72.60
80405;BME280;69733;48.744;9.176;2023-12-28T02:47:07;96980.41;;;2.09;72.63
80405;BME280;69733;48.744;9.176;2023-12-28T02:49:32;96975.38;;;2.08;72.69
80405;BME280;69733;48.744;9.176;2023-12-28T02:51:57;96969.63;;;2.04;72.58
80405;BME280;69733;48.744;9.176;2023-12-28T02:54:23;96981.78;;;2.05;72.72
80405;BME280;69733;48.744;9.176;2023-12-28T02:56:48;96982.75;;;2.04;72.65
80405;BME280;69733;48.744;9.176;2023-12-28T02:59:13;96985.38;;;2.04;72.77
80405;BME280;69733;48.744;9.176;2023-12-28T03:01:38;96990.63;;;2.04;72.46
80405;BME280;69733;48.744;9.176;2023-12-28T03:04:05;96980.13;;;2.04;72.51
80405;BME280;69733;48.744;9.176;2023-12-28T03:06:30;96979.16;;;2.05;72.67
80405;BME280;69733;48.744;9.176;2023-12-28T03:08:55;96978.97;;;2.07;72.32
80405;BME280;69733;48.744;9.176;2023-12-28T03:11:20;96975.53;;;2.06;72.62
80405;BME280;69733;48.744;9.176;2023-12-28T03:13:46;96971.28;;;2.05;72.60
80405;BME280;69733;48.744;9.176;2023-12-28T03:16:13;96976.53;;;2.05;72.93
80405;BME280;69733;48.744;9.176;2023-12-28T03:18:38;96982.56;;;2.06;72.72
80405;BME280;69733;48.744;9.176;2023-12-28T03:21:04;96973.56;;;2.08;72.75
80405;BME280;69733;48.744;9.176;2023-12-28T03:23:29;96978.47;;;2.11;72.31
80405;BME280;69733;48.744;9.176;2023-12-28T03:25:55;96982.72;;;2.12;72.75
80405;BME280;69733;48.744;9.176;2023-12-28T03:28:20;96982.72;;;2.12;72.63
80405;BME280;69733;48.744;9.176;2023-12-28T03:30:46;96992.06;;;2.15;72.62
80405;BME280;69733;48.744;9.176;2023-12-28T03:33:12;96987.16;;;2.12;72.58
80405;BME280;69733;48.744;9.176;2023-12-28T03:35:37;96989.59;;;2.13;72.32
80405;BME280;69733;48.744;9.176;2023-12-28T03:38:03;96989.59;;;2.13;72.74
80405;BME280;69733;48.744;9.176;2023-12-28T03:40:28;96994.50;;;2.16;72.51
80405;BME280;69733;48.744;9.176;2023-12-28T03:42:53;96979.22;;;2.20;72.35
80405;BME280;69733;48.744;9.176;2023-12-28T03:45:18;96980.38;;;2.25;72.31
80405;BME280;69733;48.744;9.176;2023-12-28T03:47:45;96980.38;;;2.25;72.37
80405;BME280;69733;48.744;9.176;2023-12-28T03:50:10;96987.88;;;2.28;72.18
80405;BME280;69733;48.744;9.176;2023-12-28T03:52:36;96960.47;;;2.31;72.44
80405;BME280;69733;48.744;9.176;2023-12-28T03:55:01;96957.84;;;2.31;72.10
80405;BME280;69733;48.744;9.176;2023-12-28T03:57:26;96959.50;;;2.32;72.60
80405;BME280;69733;48.744;9.176;2023-12-28T03:59:52;96955.06;;;2.32;72.24
80405;BME280;69733;48.744;9.176;2023-12-28T04:02:19;96955.69;;;2.34;72.13
80405;BME280;69733;48.744;9.176;2023-12-28T04:04:44;96955.34;;;2.37;72.23
80405;BME280;69733;48.744;9.176;2023-12-28T04:07:09;96949.41;;;2.43;72.71
80405;BME280;69733;48.744;9.176;2023-12-28T04:09:35;96946.56;;;2.53;72.07
80405;BME280;69733;48.744;9.176;2023-12-28T04:12:00;96948.16;;;2.62;71.80
80405;BME280;69733;48.744;9.176;2023-12-28T04:14:26;96944.94;;;2.75;71.90
80405;BME280;69733;48.744;9.176;2023-12-28T04:16:51;96950.13;;;2.83;71.47
80405;BME280;69733;48.744;9.176;2023-12-28T04:19:16;96946.25;;;2.93;71.12
80405;BME280;69733;48.744;9.176;2023-12-28T04:21:45;96948.00;;;3.01;71.38
80405;BME280;69733;48.744;9.176;2023-12-28T04:24:10;96956.47;;;3.11;71.20
80405;BME280;69733;48.744;9.176;2023-12-28T04:26:36;96963.91;;;3.22;71.28
80405;BME280;69733;48.744;9.176;2023-12-28T04:29:01;96955.13;;;3.30;71.08
80405;BME280;69733;48.744;9.176;2023-12-28T04:31:27;96943.53;;;3.39;70.91
80405;BME280;69733;48.744;9.176;2023-12-28T04:33:52;96941.00;;;3.45;70.95
80405;BME280;69733;48.744;9.176;2023-12-28T04:36:17;96942.91;;;3.51;70.41
80405;BME280;69733;48.744;9.176;2023-12-28T04:38:43;96933.13;;;3.60;70.53
80405;BME280;69733;48.744;9.176;2023-12-28T04:41:09;96947.63;;;3.71;70.56
80405;BME280;69733;48.744;9.176;2023-12-28T04:43:34;96933.81;;;3.83;70.00
80405;BME280;69733;48.744;9.176;2023-12-28T04:46:04;96937.63;;;3.95;70.41
80405;BME280;69733;48.744;9.176;2023-12-28T04:48:30;96931.69;;;4.08;70.10
80405;BME280;69733;48.744;9.176;2023-12-28T04:50:55;96925.88;;;4.13;70.01
80405;BME280;69733;48.744;9.176;2023-12-28T04:53:20;96919.06;;;4.18;70.36
80405;BME280;69733;48.744;9.176;2023-12-28T04:55:46;96920.97;;;4.24;70.05
80405;BME280;69733;48.744;9.176;2023-12-28T04:58:11;96921.41;;;4.28;69.96
80405;BME280;69733;48.744;9.176;2023-12-28T05:00:37;96916.59;;;4.31;70.21
80405;BME280;69733;48.744;9.176;2023-12-28T05:03:02;96926.31;;;4.31;70.09
80405;BME280;69733;48.744;9.176;2023-12-28T05:05:28;96925.94;;;4.34;70.16
80405;BME280;69733;48.744;9.176;2023-12-28T05:07:53;96926.09;;;4.32;70.01
80405;BME280;69733;48.744;9.176;2023-12-28T05:10:18;96927.19;;;4.38;70.10
80405;BME280;69733;48.744;9.176;2023-12-28T05:12:44;96925.75;;;4.35;69.92
80405;BME280;69733;48.744;9.176;2023-12-28T05:15:09;96931.03;;;4.35;70.04
80405;BME280;69733;48.744;9.176;2023-12-28T05:17:34;96939.28;;;4.32;70.46
80405;BME280;69733;48.744;9.176;2023-12-28T05:20:00;96936.34;;;4.42;70.09
80405;BME280;69733;48.744;9.176;2023-12-28T05:22:25;96935.34;;;4.43;70.41
80405;BME280;69733;48.744;9.176;2023-12-28T05:24:50;96940.59;;;4.43;69.75
80405;BME280;69733;48.744;9.176;2023-12-28T05:27:16;96944.72;;;4.45;70.33
80405;BME280;69733;48.744;9.176;2023-12-28T05:29:41;96941.16;;;4.53;69.89
80405;BME280;69733;48.744;9.176;2023-12-28T05:32:06;96947.91;;;4.62;69.77
80405;BME280;69733;48.744;9.176;2023-12-28T05:34:35;96951.59;;;4.68;69.43
80405;BME280;69733;48.744;9.176;2023-12-28T05:37:00;96952.69;;;4.73;69.83
80405;BME280;69733;48.744;9.176;2023-12-28T05:39:25;96949.28;;;4.79;69.18
80405;BME280;69733;48.744;9.176;2023-12-28T05:41:51;96957.63;;;4.83;69.40
80405;BME280;69733;48.744;9.176;2023-12-28T05:44:16;96955.28;;;4.88;69.20
80405;BME280;69733;48.744;9.176;2023-12-28T05:46:42;96958.13;;;4.93;69.30
80405;BME280;69733;48.744;9.176;2023-12-28T05:49:07;96959.59;;;4.95;69.08
80405;BME280;69733;48.744;9.176;2023-12-28T05:51:39;96964.88;;;4.95;69.34
80405;BME280;69733;48.744;9.176;2023-12-28T05:54:05;96983.50;;;4.94;69.40
80405;BME280;69733;48.744;9.176;2023-12-28T05:56:30;96979.44;;;4.91;69.18
80405;BME280;69733;48.744;9.176;2023-12-28T05:58:55;96984.50;;;4.93;69.52
80405;BME280;69733;48.744;9.176;2023-12-28T06:01:21;96987.78;;;4.95;69.67
80405;BME280;69733;48.744;9.176;2023-12-28T06:03:46;96984.75;;;4.98;69.25
80405;BME280;69733;48.744;9.176;2023-12-28T06:06:14;96983.38;;;5.02;69.01
80405;BME280;69733;48.744;9.176;2023-12-28T06:08:39;96989.53;;;5.09;68.96
80405;BME280;69733;48.744;9.176;2023-12-28T06:11:05;96992.63;;;5.13;69.32
80405;BME280;69733;48.744;9.176;2023-12-28T06:13:31;96997.31;;;5.17;69.13
80405;BME280;69733;48.744;9.176;2023-12-28T06:15:56;96995.91;;;5.21;68.67
80405;BME280;69733;48.744;9.176;2023-12-28T06:18:21;96998.38;;;5.23;69.09
80405;BME280;69733;48.744;9.176;2023-12-28T06:20:47;97007.94;;;5.24;68.85
80405;BME280;69733;48.744;9.176;2023-12-28T06:23:12;97006.91;;;5.25;68.89
80405;BME280;69733;48.744;9.176;2023-12-28T06:25:37;97008.75;;;5.24;69.10
80405;BME280;69733;48.744;9.176;2023-12-28T06:28:03;97000.63;;;5.26;69.07
80405;BME280;69733;48.744;9.176;2023-12-28T06:30:28;97004.69;;;5.28;69.26
80405;BME280;69733;48.744;9.176;2023-12-28T06:32:54;97013.88;;;5.32;69.17
80405;BME280;69733;48.744;9.176;2023-12-28T06:35:20;97010.84;;;5.35;68.79
80405;BME280;69733;48.744;9.176;2023-12-28T06:37:45;97016.38;;;5.40;69.28
80405;BME280;69733;48.744;9.176;2023-12-28T06:40:11;97002.41;;;5.46;69.02
80405;BME280;69733;48.744;9.176;2023-12-28T06:42:36;96992.50;;;5.48;69.09
80405;BME280;69733;48.744;9.176;2023-12-28T06:45:02;97001.03;;;5.50;68.96
80405;BME280;69733;48.744;9.176;2023-12-28T06:47:27;97006.97;;;5.53;69.21
80405;BME280;69733;48.744;9.176;2023-12-28T06:49:52;97011.84;;;5.56;68.84
80405;BME280;69733;48.744;9.176;2023-12-28T06:52:17;97017.72;;;5.58;68.80
80405;BME280;69733;48.744;9.176;2023-12-28T06:54:43;97015.75;;;5.60;69.13
80405;BME280;69733;48.744;9.176;2023-12-28T06:57:11;97009.88;;;5.64;68.93
80405;BME280;69733;48.744;9.176;2023-12-28T06:59:36;97014.75;;;5.67;68.79
80405;BME280;69733;48.744;9.176;2023-12-28T07:02:02;97013.56;;;5.70;68.98
80405;BME280;69733;48.744;9.176;2023-12-28T07:04:27;97021.09;;;5.73;68.70
80405;BME280;69733;48.744;9.176;2023-12-28T07:06:55;97016.44;;;5.75;68.81
80405;BME280;69733;48.744;9.176;2023-12-28T07:09:20;97017.69;;;5.79;68.80
80405;BME280;69733;48.744;9.176;2023-12-28T07:11:45;97010.41;;;5.81;68.75
80405;BME280;69733;48.744;9.176;2023-12-28T07:14:11;97015.28;;;5.84;68.93
80405;BME280;69733;48.744;9.176;2023-12-28T07:16:36;97023.00;;;5.85;69.32
80405;BME280;69733;48.744;9.176;2023-12-28T07:19:01;97022.66;;;5.88;69.06
80405;BME280;69733;48.744;9.176;2023-12-28T07:21:26;97021.47;;;5.91;68.97
80405;BME280;69733;48.744;9.176;2023-12-28T07:23:52;97027.34;;;5.93;69.24
80405;BME280;69733;48.744;9.176;2023-12-28T07:26:17;97026.97;;;5.96;68.83
80405;BME280;69733;48.744;9.176;2023-12-28T07:28:42;97035.53;;;5.98;69.18
80405;BME280;69733;48.744;9.176;2023-12-28T07:31:10;97036.97;;;6.00;69.19
80405;BME280;69733;48.744;9.176;2023-12-28T07:33:35;97034.94;;;6.03;68.87
80405;BME280;69733;48.744;9.176;2023-12-28T07:36:00;97036.56;;;6.04;69.31
80405;BME280;69733;48.744;9.176;2023-12-28T07:38:28;97041.66;;;6.05;69.00
80405;BME280;69733;48.744;9.176;2023-12-28T07:40:54;97043.28;;;6.06;69.59
80405;BME280;69733;48.744;9.176;2023-12-28T07:43:19;97043.09;;;6.08;69.02
80405;BME280;69733;48.744;9.176;2023-12-28T07:45:44;97039.47;;;6.09;69.44
80405;BME280;69733;48.744;9.176;2023-12-28T07:48:09;97032.13;;;6.11;69.41
80405;BME280;69733;48.744;9.176;2023-12-28T07:50:35;97033.56;;;6.13;69.26
80405;BME280;69733;48.744;9.176;2023-12-28T07:53:00;97027.28;;;6.14;69.17
80405;BME280;69733;48.744;9.176;2023-12-28T07:55:25;97040.09;;;6.17;69.19
80405;BME280;69733;48.744;9.176;2023-12-28T07:57:51;97040.75;;;6.19;69.13
80405;BME280;69733;48.744;9.176;2023-12-28T08:00:17;97047.63;;;6.20;69.34
80405;BME280;69733;48.744;9.176;2023-12-28T08:02:42;97045.63;;;6.22;69.46
80405;BME280;69733;48.744;9.176;2023-12-28T08:05:08;97057.84;;;6.23;69.24
80405;BME280;69733;48.744;9.176;2023-12-28T08:07:34;97054.81;;;6.26;69.55
80405;BME280;69733;48.744;9.176;2023-12-28T08:09:59;97048.47;;;6.27;69.39
80405;BME280;69733;48.744;9.176;2023-12-28T08:12:25;97047.09;;;6.31;69.52
80405;BME280;69733;48.744;9.176;2023-12-28T08:14:52;97046.09;;;6.32;69.87
80405;BME280;69733;48.744;9.176;2023-12-28T08:17:18;97050.16;;;6.35;69.46
80405;BME280;69733;48.744;9.176;2023-12-28T08:19:43;97051.63;;;6.37;69.49
80405;BME280;69733;48.744;9.176;2023-12-28T08:22:08;97059.16;;;6.40;69.41
80405;BME280;69733;48.744;9.176;2023-12-28T08:24:33;97066.69;;;6.43;69.56
80405;BME280;69733;48.744;9.176;2023-12-28T08:27:01;97062.63;;;6.47;69.69
80405;BME280;69733;48.744;9.176;2023-12-28T08:29:26;97057.13;;;6.49;69.84
80405;BME280;69733;48.744;9.176;2023-12-28T08:31:52;97055.94;;;6.52;69.81
80405;BME280;69733;48.744;9.176;2023-12-28T08:34:18;97061.84;;;6.54;69.85
80405;BME280;69733;48.744;9.176;2023-12-28T08:36:43;97053.50;;;6.57;69.99
80405;BME280;69733;48.744;9.176;2023-12-28T08:39:08;97066.34;;;6.60;69.78
80405;BME280;69733;48.744;9.176;2023-12-28T08:41:34;97061.69;;;6.62;69.75
80405;BME280;69733;48.744;9.176;2023-12-28T08:43:59;97064.94;;;6.64;70.09
80405;BME280;69733;48.744;9.176;2023-12-28T08:46:24;97071.66;;;6.66;69.72
80405;BME280;69733;48.744;9.176;2023-12-28T08:48:50;97078.38;;;6.69;69.97
80405;BME280;69733;48.744;9.176;2023-12-28T08:51:15;97071.88;;;6.71;70.04
80405;BME280;69733;48.744;9.176;2023-12-28T08:53:41;97074.13;;;6.74;70.20
80405;BME280;69733;48.744;9.176;2023-12-28T08:56:17;97071.31;;;6.76;70.14
80405;BME280;69733;48.744;9.176;2023-12-28T08:58:43;97072.53;;;6.80;70.29
80405;BME280;69733;48.744;9.176;2023-12-28T09:01:08;97072.97;;;6.83;69.79
80405;BME280;69733;48.744;9.176;2023-12-28T09:03:34;97065.44;;;6.87;69.70
80405;BME280;69733;48.744;9.176;2023-12-28T09:05:59;97053.66;;;6.89;70.38
80405;BME280;69733;48.744;9.176;2023-12-28T09:08:25;97051.41;;;6.93;69.99
80405;BME280;69733;48.744;9.176;2023-12-28T09:10:50;97055.31;;;6.97;69.67
80405;BME280;69733;48.744;9.176;2023-12-28T09:13:16;97054.47;;;6.96;70.36
80405;BME280;69733;48.744;9.176;2023-12-28T09:15:42;97055.72;;;7.00;70.41
80405;BME280;69733;48.744;9.176;2023-12-28T09:18:07;97058.16;;;7.09;70.11
80405;BME280;69733;48.744;9.176;2023-12-28T09:20:33;97056.75;;;7.13;70.31
80405;BME280;69733;48.744;9.176;2023-12-28T09:23:00;97063.09;;;7.18;69.77
80405;BME280;69733;48.744;9.176;2023-12-28T09:25:26;97066.75;;;7.24;70.23
80405;BME280;69733;48.744;9.176;2023-12-28T09:27:51;97058.81;;;7.30;70.25
80405;BME280;69733;48.744;9.176;2023-12-28T09:30:16;97075.75;;;7.36;70.32
80405;BME280;69733;48.744;9.176;2023-12-28T09:32:42;97075.75;;;7.56;69.84
80405;BME280;69733;48.744;9.176;2023-12-28T09:35:07;97078.81;;;7.53;70.16
80405;BME280;69733;48.744;9.176;2023-12-28T09:37:33;97081.47;;;7.59;69.88
80405;BME280;69733;48.744;9.176;2023-12-28T09:39:59;97079.44;;;7.68;70.17
80405;BME280;69733;48.744;9.176;2023-12-28T09:42:32;97077.00;;;7.79;70.01
80405;BME280;69733;48.744;9.176;2023-12-28T09:45:01;97094.50;;;7.87;69.99
80405;BME280;69733;48.744;9.176;2023-12-28T09:47:26;97099.03;;;7.93;69.95
80405;BME280;69733;48.744;9.176;2023-12-28T09:49:51;97095.34;;;8.00;69.90
80405;BME280;69733;48.744;9.176;2023-12-28T09:52:16;97098.19;;;8.06;70.00
80405;BME280;69733;48.744;9.176;2023-12-28T09:54:42;97092.47;;;8.09;70.01
80405;BME280;69733;48.744;9.176;2023-12-28T09:57:07;97085.56;;;8.14;69.84
80405;BME280;69733;48.744;9.176;2023-12-28T09:59:34;97081.84;;;8.15;70.47
80405;BME280;69733;48.744;9.176;2023-12-28T10:02:00;97082.47;;;8.17;70.71
80405;BME280;69733;48.744;9.176;2023-12-28T10:04:27;97092.47;;;8.22;70.76
80405;BME280;69733;48.744;9.176;2023-12-28T10:06:54;97090.63;;;8.22;70.36
80405;BME280;69733;48.744;9.176;2023-12-28T10:09:19;97090.41;;;8.24;70.74
80405;BME280;69733;48.744;9.176;2023-12-28T10:11:45;97090.81;;;8.27;70.84
80405;BME280;69733;48.744;9.176;2023-12-28T10:14:11;97089.63;;;8.30;70.79
80405;BME280;69733;48.744;9.176;2023-12-28T10:16:40;97089.44;;;8.31;70.73
80405;BME280;69733;48.744;9.176;2023-12-28T10:19:05;97095.75;;;8.30;70.78
80405;BME280;69733;48.744;9.176;2023-12-28T10:21:31;97090.44;;;8.30;71.02
80405;BME280;69733;48.744;9.176;2023-12-28T10:23:57;97086.16;;;8.29;71.22
80405;BME280;69733;48.744;9.176;2023-12-28T10:26:23;97086.16;;;8.29;71.20
80405;BME280;69733;48.744;9.176;2023-12-28T10:28:49;97085.38;;;8.29;71.15
80405;BME280;69733;48.744;9.176;2023-12-28T10:31:14;97082.06;;;8.27;71.29
80405;BME280;69733;48.744;9.176;2023-12-28T10:33:39;97077.81;;;8.32;71.31
80405;BME280;69733;48.744;9.176;2023-12-28T10:36:06;97081.47;;;8.31;71.51
80405;BME280;69733;48.744;9.176;2023-12-28T10:38:36;97082.88;;;8.34;71.30
80405;BME280;69733;48.744;9.176;2023-12-28T10:41:04;97073.53;;;8.31;71.65
80405;BME280;69733;48.744;9.176;2023-12-28T10:43:45;97069.22;;;8.30;71.72
80405;BME280;69733;48.744;9.176;2023-12-28T10:46:22;97071.28;;;8.35;71.64
80405;BME280;69733;48.744;9.176;2023-12-28T10:48:51;97073.50;;;8.38;71.46
80405;BME280;69733;48.744;9.176;2023-12-28T10:51:20;97071.25;;;8.41;71.28
80405;BME280;69733;48.744;9.176;2023-12-28T10:54:02;97057.78;;;8.49;71.23
80405;BME280;69733;48.744;9.176;2023-12-28T10:56:43;97065.69;;;8.63;70.94
80405;BME280;69733;48.744;9.176;2023-12-28T11:01:41;97058.47;;;8.76;70.84
80405;BME280;69733;48.744;9.176;2023-12-28T11:06:42;97042.75;;;8.81;71.15
80405;BME280;69733;48.744;9.176;2023-12-28T11:09:09;97053.34;;;8.88;70.88
80405;BME280;69733;48.744;9.176;2023-12-28T11:11:36;97044.16;;;8.84;71.08
80405;BME280;69733;48.744;9.176;2023-12-28T11:14:02;97044.16;;;8.84;71.09
80405;BME280;69733;48.744;9.176;2023-12-28T11:16:28;97039.06;;;8.89;71.44
80405;BME280;69733;48.744;9.176;2023-12-28T11:18:55;97036.56;;;8.94;71.17
80405;BME280;69733;48.744;9.176;2023-12-28T11:21:21;97031.88;;;8.96;71.15
80405;BME280;69733;48.744;9.176;2023-12-28T11:23:48;97030.25;;;8.95;71.40
80405;BME280;69733;48.744;9.176;2023-12-28T11:26:21;97027.16;;;8.98;71.32
80405;BME280;69733;48.744;9.176;2023-12-28T11:28:47;97026.97;;;8.99;71.37
80405;BME280;69733;48.744;9.176;2023-12-28T11:31:16;97022.44;;;9.00;71.74
80405;BME280;69733;48.744;9.176;2023-12-28T11:33:46;97025.31;;;8.98;71.50
80405;BME280;69733;48.744;9.176;2023-12-28T11:39:04;97023.09;;;8.95;71.78
80405;BME280;69733;48.744;9.176;2023-12-28T11:41:35;97021.47;;;8.94;71.75
80405;BME280;69733;48.744;9.176;2023-12-28T11:44:04;97017.16;;;8.93;71.99
80405;BME280;69733;48.744;9.176;2023-12-28T11:46:30;97020.63;;;8.94;72.08
80405;BME280;69733;48.744;9.176;2023-12-28T11:49:06;97016.34;;;8.93;72.04
80405;BME280;69733;48.744;9.176;2023-12-28T11:51:37;97011.03;;;8.93;72.14
80405;BME280;69733;48.744;9.176;2023-12-28T11:54:03;97014.31;;;8.95;72.13
80405;BME280;69733;48.744;9.176;2023-12-28T11:56:30;97013.88;;;8.98;72.28
80405;BME280;69733;48.744;9.176;2023-12-28T11:58:55;97012.25;;;8.97;72.17
80405;BME280;69733;48.744;9.176;2023-12-28T12:01:20;97014.09;;;8.96;72.41
80405;BME280;69733;48.744;9.176;2023-12-28T12:03:46;97015.13;;;8.95;72.35
80405;BME280;69733;48.744;9.176;2023-12-28T12:06:11;97016.75;;;8.96;72.23
80405;BME280;69733;48.744;9.176;2023-12-28T12:08:36;97014.91;;;8.97;72.49
80405;BME280;69733;48.744;9.176;2023-12-28T12:11:04;97016.53;;;8.98;72.46
80405;BME280;69733;48.744;9.176;2023-12-28T12:13:30;97014.91;;;8.97;72.47
80405;BME280;69733;48.744;9.176;2023-12-28T12:15:56;97009.59;;;8.97;72.47
80405;BME280;69733;48.744;9.176;2023-12-28T12:18:22;97001.44;;;8.98;72.54
80405;BME280;69733;48.744;9.176;2023-12-28T12:20:48;97008.16;;;9.01;72.37
80405;BME280;69733;48.744;9.176;2023-12-28T12:23:14;97006.13;;;9.03;72.35
80405;BME280;69733;48.744;9.176;2023-12-28T12:25:41;97000.56;;;9.05;72.39
80405;BME280;69733;48.744;9.176;2023-12-28T12:28:06;96994.25;;;9.06;72.40
80405;BME280;69733;48.744;9.176;2023-12-28T12:30:31;96988.50;;;9.09;72.38
80405;BME280;69733;48.744;9.176;2023-12-28T12:32:57;96991.97;;;9.09;72.51
80405;BME280;69733;48.744;9.176;2023-12-28T12:35:22;96984.84;;;9.10;72.59
80405;BME280;69733;48.744;9.176;2023-12-28T12:37:48;96977.47;;;9.12;72.30
80405;BME280;69733;48.744;9.176;2023-12-28T12:40:16;96979.28;;;9.11;72.41
80405;BME280;69733;48.744;9.176;2023-12-28T12:42:51;96975.81;;;9.11;72.42
80405;BME280;69733;48.744;9.176;2023-12-28T12:45:18;96979.91;;;9.13;72.77
80405;BME280;69733;48.744;9.176;2023-12-28T12:47:43;96973.78;;;9.13;72.62
80405;BME280;69733;48.744;9.176;2023-12-28T12:50:09;96963.75;;;9.15;72.55
80405;BME280;69733;48.744;9.176;2023-12-28T12:52:42;96975.81;;;9.17;72.35
80405;BME280;69733;48.744;9.176;2023-12-28T12:55:12;96973.72;;;9.19;72.87
80405;BME280;69733;48.744;9.176;2023-12-28T12:57:37;96979.03;;;9.19;72.59
80405;BME280;69733;48.744;9.176;2023-12-28T13:00:04;96982.72;;;9.18;72.69
80405;BME280;69733;48.744;9.176;2023-12-28T13:02:33;96977.41;;;9.18;72.88
80405;BME280;69733;48.744;9.176;2023-12-28T13:05:04;96979.03;;;9.19;72.73
80405;BME280;69733;48.744;9.176;2023-12-28T13:07:31;96983.53;;;9.19;72.75
80405;BME280;69733;48.744;9.176;2023-12-28T13:09:56;96975.81;;;9.17;73.11
80405;BME280;69733;48.744;9.176;2023-12-28T13:12:22;96975.38;;;9.20;72.81
80405;BME280;69733;48.744;9.176;2023-12-28T13:14:47;96973.28;;;9.22;72.81